createdAt,value
2022-09-22T00:04:00.808Z,4.10
2022-09-22T00:09:05.755Z,3.37
2022-09-22T00:14:12.772Z,2.83
2022-09-22T00:19:21.495Z,3.35
2022-09-22T00:24:24.851Z,3.13
2022-09-22T00:29:29.320Z,3.03
2022-09-22T00:34:31.638Z,3.05
2022-09-22T00:39:34.079Z,3.55
2022-09-22T00:44:41.344Z,3.13
2022-09-22T00:49:55.485Z,3.20
2022-09-22T00:55:02.331Z,2.80
2022-09-22T01:00:07.460Z,3.20
2022-09-22T01:05:09.961Z,3.13
2022-09-22T01:10:12.499Z,3.08
2022-09-22T01:15:35.181Z,3.00
2022-09-22T01:21:11.571Z,2.88
2022-09-22T01:26:35.194Z,2.70
2022-09-22T01:31:39.703Z,2.80
2022-09-22T01:37:00.981Z,2.72
2022-09-22T01:42:19.117Z,3.88
2022-09-22T01:47:26.423Z,2.58
2022-09-22T01:52:32.343Z,2.70
2022-09-22T01:57:43.546Z,2.60
2022-09-22T02:03:09.604Z,2.80
2022-09-22T02:08:18.120Z,2.67
2022-09-22T02:13:20.541Z,3.17
2022-09-22T02:18:46.899Z,2.97
2022-09-22T02:23:49.958Z,2.53
2022-09-22T02:29:02.210Z,2.55
2022-09-22T02:34:05.847Z,2.30
2022-09-22T02:39:19.327Z,2.47
2022-09-22T02:44:23.956Z,2.58
2022-09-22T02:49:27.719Z,1.95
2022-09-22T02:54:30.099Z,2.47
2022-09-22T02:59:32.621Z,2.65
2022-09-22T03:04:35.121Z,2.08
2022-09-22T03:09:37.638Z,2.40
2022-09-22T03:14:40.050Z,2.08
2022-09-22T03:19:43.113Z,2.58
2022-09-22T03:24:45.485Z,2.15
2022-09-22T03:29:47.954Z,1.90
2022-09-22T03:34:50.470Z,2.60
2022-09-22T03:39:52.971Z,2.05
2022-09-22T03:44:55.421Z,2.10
2022-09-22T03:49:57.889Z,1.88
2022-09-22T03:55:02.989Z,2.25
2022-09-22T04:00:07.168Z,1.90
2022-09-22T04:05:14.571Z,2.05
2022-09-22T04:10:17.093Z,1.80
2022-09-22T04:15:19.506Z,1.85
2022-09-22T04:20:21.970Z,1.88
2022-09-22T04:25:24.724Z,1.73
2022-09-22T04:30:27.270Z,2.00
2022-09-22T04:35:30.364Z,1.73
2022-09-22T04:40:33.842Z,1.83
2022-09-22T04:45:39.702Z,1.60
2022-09-22T04:50:47.164Z,1.88
2022-09-22T04:55:51.139Z,2.40
2022-09-22T05:00:55.876Z,1.95
2022-09-22T05:05:58.433Z,1.73
2022-09-22T05:11:00.878Z,1.70
2022-09-22T05:16:05.438Z,1.77
2022-09-22T05:21:08.147Z,1.73
2022-09-22T05:26:11.132Z,1.40
2022-09-22T05:31:13.737Z,1.67
2022-09-22T05:36:16.681Z,2.22
2022-09-22T05:41:19.099Z,2.00
2022-09-22T05:46:21.593Z,1.70
2022-09-22T05:51:24.025Z,1.65
2022-09-22T05:56:26.630Z,1.77
2022-09-22T06:01:29.035Z,1.70
2022-09-22T06:06:31.421Z,2.13
2022-09-22T06:11:33.845Z,2.05
2022-09-22T06:16:36.380Z,1.98
2022-09-22T06:21:39.167Z,2.05
2022-09-22T06:26:41.610Z,1.98
2022-09-22T06:31:44.082Z,1.95
2022-09-22T06:36:46.712Z,1.30
2022-09-22T06:41:49.389Z,2.03
2022-09-22T06:46:51.768Z,2.00
2022-09-22T06:51:59.322Z,1.85
2022-09-22T06:57:01.786Z,1.67
2022-09-22T07:02:07.374Z,1.85
2022-09-22T07:07:10.060Z,1.30
2022-09-22T07:12:12.467Z,1.80
2022-09-22T07:17:16.358Z,2.10
2022-09-22T07:22:19.185Z,1.50
2022-09-22T07:27:26.031Z,1.50
2022-09-22T07:32:30.371Z,1.90
2022-09-22T07:37:33.337Z,1.77
2022-09-22T07:42:35.742Z,1.50
2022-09-22T07:47:56.670Z,1.10
2022-09-22T07:52:59.427Z,1.37
2022-09-22T07:58:02.022Z,1.40
2022-09-22T08:03:04.482Z,2.13
2022-09-22T08:08:08.100Z,1.40
2022-09-22T08:13:11.558Z,1.30
2022-09-22T08:18:14.364Z,1.80
2022-09-22T08:23:16.811Z,1.13
2022-09-22T08:28:19.226Z,1.70
2022-09-22T08:33:21.699Z,1.30
2022-09-22T08:38:24.165Z,1.17
2022-09-22T08:43:29.748Z,1.42
2022-09-22T08:48:51.626Z,1.13
2022-09-22T08:53:54.104Z,1.15
2022-09-22T08:59:31.683Z,0.68
2022-09-22T09:04:43.946Z,0.63
2022-09-22T09:10:02.516Z,1.25
2022-09-22T09:15:27.556Z,1.35
2022-09-22T09:20:39.253Z,0.75
2022-09-22T09:25:43.459Z,1.02
2022-09-22T09:30:50.154Z,0.85
2022-09-22T09:35:53.761Z,1.13
2022-09-22T09:41:09.876Z,0.77
2022-09-22T09:46:42.340Z,1.52
2022-09-22T09:51:48.545Z,0.80
2022-09-22T09:57:09.754Z,0.80
2022-09-22T10:02:17.603Z,0.93
2022-09-22T10:12:33.839Z,0.82
2022-09-22T10:17:44.929Z,0.88
2022-09-22T10:22:48.456Z,0.52
2022-09-22T10:28:09.747Z,1.13
2022-09-22T10:33:12.075Z,0.80
2022-09-22T10:38:16.720Z,1.00
2022-09-22T10:43:44.255Z,0.63
2022-09-22T10:49:19.314Z,0.70
2022-09-22T10:54:49.151Z,0.50
2022-09-22T11:00:10.576Z,0.65
2022-09-22T11:05:57.032Z,0.68
2022-09-22T11:11:40.792Z,0.50
2022-09-22T11:17:17.210Z,0.82
2022-09-22T11:22:37.886Z,0.63
2022-09-22T11:28:11.988Z,0.60
2022-09-22T11:33:17.472Z,0.57
2022-09-22T11:39:02.419Z,0.73
2022-09-22T11:44:36.874Z,0.57
2022-09-22T11:49:58.349Z,0.55
2022-09-22T11:55:36.544Z,0.73
2022-09-22T12:01:09.685Z,0.60
2022-09-22T12:06:19.865Z,1.67
2022-09-22T12:11:26.511Z,0.55
2022-09-22T12:16:44.835Z,0.75
2022-09-22T12:22:11.033Z,0.68
2022-09-22T12:27:24.165Z,1.00
2022-09-22T12:32:37.253Z,0.70
2022-09-22T12:37:40.112Z,0.70
2022-09-22T12:42:46.341Z,0.50
2022-09-22T12:47:51.544Z,0.77
2022-09-22T12:52:54.453Z,0.55
2022-09-22T12:57:57.959Z,0.30
2022-09-22T13:03:01.706Z,0.30
2022-09-22T13:08:05.352Z,0.50
2022-09-22T13:13:19.644Z,0.50
2022-09-22T13:18:41.329Z,0.43
2022-09-22T13:23:56.313Z,1.38
2022-09-22T13:29:09.591Z,0.70
2022-09-22T13:34:31.810Z,0.40
2022-09-22T13:39:43.552Z,0.85
2022-09-22T13:45:06.727Z,1.05
2022-09-22T13:50:19.725Z,0.43
2022-09-22T13:55:34.882Z,0.67
2022-09-22T14:01:11.659Z,0.52
2022-09-22T14:06:15.388Z,0.77
2022-09-22T14:11:24.519Z,0.75
2022-09-22T14:16:29.958Z,0.50
2022-09-22T14:21:40.754Z,0.50
2022-09-22T14:26:52.457Z,0.50
2022-09-22T14:32:33.928Z,0.43
2022-09-22T14:37:50.886Z,0.45
2022-09-22T14:42:57.626Z,0.65
2022-09-22T14:48:13.649Z,0.57
2022-09-22T14:53:34.181Z,0.60
2022-09-22T14:58:40.781Z,0.63
2022-09-22T15:03:51.832Z,0.80
2022-09-22T15:08:54.891Z,1.42
2022-09-22T15:13:57.471Z,1.23
2022-09-22T15:19:00.652Z,0.68
2022-09-22T15:24:04.876Z,1.00
2022-09-22T15:29:13.391Z,1.30
2022-09-22T15:34:16.550Z,0.95
2022-09-22T15:39:24.306Z,0.90
2022-09-22T15:44:27.433Z,1.02
2022-09-22T15:49:34.521Z,1.10
2022-09-22T15:54:37.574Z,0.80
2022-09-22T15:59:41.035Z,0.75
2022-09-22T16:04:44.423Z,1.50
2022-09-22T16:09:46.883Z,3.50
2022-09-22T16:14:50.103Z,3.00
2022-09-22T16:19:53.230Z,4.30
2022-09-22T16:24:56.290Z,3.65
2022-09-22T16:29:59.927Z,4.15
2022-09-22T16:35:03.753Z,3.70
2022-09-22T16:40:06.944Z,4.40
2022-09-22T16:45:09.758Z,3.22
2022-09-22T16:50:12.608Z,3.28
2022-09-22T16:55:15.567Z,3.83
2022-09-22T17:00:18.148Z,3.67
2022-09-22T17:05:20.706Z,3.47
2022-09-22T17:10:24.050Z,3.53
2022-09-22T17:15:26.840Z,3.28
2022-09-22T17:20:30.781Z,3.50
2022-09-22T17:25:33.942Z,3.20
2022-09-22T17:30:36.813Z,3.17
2022-09-22T17:35:39.284Z,3.33
2022-09-22T17:40:42.470Z,4.00
2022-09-22T17:45:45.530Z,4.03
2022-09-22T17:51:09.583Z,4.30
2022-09-22T17:56:13.195Z,4.78
2022-09-22T18:01:15.860Z,5.00
2022-09-22T18:06:19.744Z,5.00
2022-09-22T18:11:23.884Z,5.40
2022-09-22T18:16:30.889Z,14.23
2022-09-22T18:21:39.477Z,14.10
2022-09-22T18:26:43.464Z,17.40
2022-09-22T18:31:46.491Z,17.83
2022-09-22T18:36:49.146Z,15.65
2022-09-22T18:41:55.007Z,16.47
2022-09-22T18:47:02.220Z,15.23
2022-09-22T18:52:04.845Z,17.25
2022-09-22T18:57:07.478Z,16.77
2022-09-22T19:02:11.954Z,16.87
2022-09-22T19:07:35.657Z,17.05
2022-09-22T19:12:42.810Z,18.67
2022-09-22T19:17:47.414Z,17.80
2022-09-22T19:22:50.575Z,17.53
2022-09-22T19:27:53.500Z,17.00
2022-09-22T19:32:56.058Z,17.40
2022-09-22T19:37:58.879Z,16.20
2022-09-22T19:43:04.284Z,14.70
2022-09-22T19:48:06.793Z,16.17
2022-09-22T19:53:09.284Z,14.43
2022-09-22T19:58:11.679Z,15.70
2022-09-22T20:03:14.941Z,15.85
2022-09-22T20:08:17.488Z,16.15
2022-09-22T20:13:38.496Z,14.05
2022-09-22T20:18:41.835Z,13.68
2022-09-22T20:23:44.531Z,14.45
2022-09-22T20:28:47.862Z,13.95
2022-09-22T20:33:50.682Z,13.65
2022-09-22T20:38:53.339Z,15.43
2022-09-22T20:43:55.986Z,12.73
2022-09-22T20:48:58.982Z,13.38
2022-09-22T20:54:01.549Z,12.75
2022-09-22T20:59:04.295Z,13.30
2022-09-22T21:04:06.938Z,13.57
2022-09-22T21:09:29.644Z,12.43
2022-09-22T21:14:35.983Z,12.88
2022-09-22T21:19:38.613Z,12.85
2022-09-22T21:24:43.259Z,12.80
2022-09-22T21:29:45.616Z,13.27
2022-09-22T21:34:48.063Z,13.10
2022-09-22T21:39:50.527Z,12.68
2022-09-22T21:44:53.015Z,14.10
2022-09-22T21:49:55.475Z,13.48
2022-09-22T21:54:57.844Z,13.27
2022-09-22T22:00:00.488Z,14.68
2022-09-22T22:05:03.025Z,14.70
2022-09-22T22:10:05.774Z,13.73
2022-09-22T22:15:08.466Z,14.57
2022-09-22T22:20:10.947Z,14.23
2022-09-22T22:25:17.365Z,15.00
2022-09-22T22:30:19.854Z,14.55
2022-09-22T22:35:22.347Z,13.68
2022-09-22T22:40:24.944Z,12.80
2022-09-22T22:45:27.369Z,14.07
2022-09-22T22:50:33.037Z,14.40
2022-09-22T22:55:35.945Z,12.75
2022-09-22T23:00:39.224Z,14.57
2022-09-22T23:05:43.186Z,13.55
2022-09-22T23:10:45.817Z,13.98
2022-09-22T23:15:51.301Z,13.75
2022-09-22T23:20:56.924Z,12.55
2022-09-22T23:25:59.423Z,12.77
2022-09-22T23:31:14.111Z,12.85
2022-09-22T23:36:19.597Z,13.40
2022-09-22T23:41:22.245Z,13.53
2022-09-22T23:46:24.717Z,12.93
2022-09-22T23:51:27.458Z,11.63
2022-09-22T23:56:29.858Z,12.70
